Airfield :
LOGIN :

Register | Disclaimer

   EN    FR    IT 

 










Legend :    VFR   Marginal VFR   IFR   Intensive IFR   Very Intensive IFR
Visi :
Ceiling :
>= 8 km
>= 3000ft
5 to 8 km
1000 to 3000 ft
1500m to 5 km
500 to 1000 ft
800 to 1500m
200 to 500 ft
< 800m
< 200 ft
Symbols :   Thunderstorms  Fog  Heavy snow  Heavy precipitations  Wind > 20 kt
SIGMETs :     Misc.  Thunderstorms  Icing  Turbulence  Mountain Waves  Volcanic Ashes






- Airport Elevation : 268 ft
- IATA code : BFS


EGAA - Belfast Aldergrove

CURRENT METAR :
  • 250220Z AUTO 16006KT 9999 NCD 09/06 Q1031

EXPIRED METARs :
  • 250150Z 16006KT CAVOK 08/06 Q1031
  • 250120Z 17003KT CAVOK 08/06 Q1031
  • 250050Z 18004KT CAVOK 09/06 Q1031
  • 250020Z 18005KT CAVOK 09/06 Q1031
  • 242350Z 18004KT CAVOK 10/07 Q1031

TAF TAF EGAA
Valid from the 25 at 00:00 until the 26 at 00:00 UTC


242301Z 2500/2524 20008KT 9999 FEW045
PROB30 2502/2506 6000
PROB30
TEMPO 2516/2524 8000 -RA
BECMG 2521/2524 BKN010



MET'MAP, your aeronautical weather chart ! - Copyright ORBIFLY December 2007 - Disclaimer

ORBIFLY MET'MAP TEAM :

Programming & Development : Alexandra Zaïnal
Concept & original design : Baudouin d'Aumeries
Assistance for programming : Marc-Olivier Méhu
Technical & hardware support : Manuel Goepfert

Contact : metmap@orbifly.com




SOURCES & CREDITS :

   NOAA